sensor_id;sensor_type;location;lat;lon;timestamp;temperature;humidity
12588;DHT22;6359;51.450;7.346;2023-04-27T00:01:09;2.50;99.90
12588;DHT22;6359;51.450;7.346;2023-04-27T00:03:36;2.40;99.90
12588;DHT22;6359;51.450;7.346;2023-04-27T00:06:03;2.40;99.90
12588;DHT22;6359;51.450;7.346;2023-04-27T00:08:32;2.30;99.90
12588;DHT22;6359;51.450;7.346;2023-04-27T00:10:59;2.20;99.90
12588;DHT22;6359;51.450;7.346;2023-04-27T00:13:26;2.20;99.90
12588;DHT22;6359;51.450;7.346;2023-04-27T00:15:53;2.10;99.90
12588;DHT22;6359;51.450;7.346;2023-04-27T00:18:20;2.10;99.90
12588;DHT22;6359;51.450;7.346;2023-04-27T00:20:47;2.10;99.90
12588;DHT22;6359;51.450;7.346;2023-04-27T00:23:14;2.10;99.90
12588;DHT22;6359;51.450;7.346;2023-04-27T00:25:42;1.90;99.90
12588;DHT22;6359;51.450;7.346;2023-04-27T00:28:09;2.00;99.90
12588;DHT22;6359;51.450;7.346;2023-04-27T00:30:36;1.80;99.90
12588;DHT22;6359;51.450;7.346;2023-04-27T00:33:03;1.70;99.90
12588;DHT22;6359;51.450;7.346;2023-04-27T00:35:31;1.70;99.90
12588;DHT22;6359;51.450;7.346;2023-04-27T00:37:58;1.60;99.90
12588;DHT22;6359;51.450;7.346;2023-04-27T00:40:25;1.60;99.90
12588;DHT22;6359;51.450;7.346;2023-04-27T00:42:53;1.50;99.90
12588;DHT22;6359;51.450;7.346;2023-04-27T00:45:20;1.50;99.90
12588;DHT22;6359;51.450;7.346;2023-04-27T00:47:47;1.40;99.90
12588;DHT22;6359;51.450;7.346;2023-04-27T00:50:15;1.40;99.90
12588;DHT22;6359;51.450;7.346;2023-04-27T00:52:44;1.30;99.90
12588;DHT22;6359;51.450;7.346;2023-04-27T00:55:11;1.20;99.90
12588;DHT22;6359;51.450;7.346;2023-04-27T00:57:38;1.30;99.90
12588;DHT22;6359;51.450;7.346;2023-04-27T01:00:07;1.30;99.90
12588;DHT22;6359;51.450;7.346;2023-04-27T01:02:36;1.30;99.90
12588;DHT22;6359;51.450;7.346;2023-04-27T01:05:03;1.20;99.90
12588;DHT22;6359;51.450;7.346;2023-04-27T01:07:35;1.10;99.90
12588;DHT22;6359;51.450;7.346;2023-04-27T01:10:03;1.10;99.90
12588;DHT22;6359;51.450;7.346;2023-04-27T01:12:30;1.00;99.90
12588;DHT22;6359;51.450;7.346;2023-04-27T01:14:56;0.80;99.90
12588;DHT22;6359;51.450;7.346;2023-04-27T01:17:25;0.90;99.90
12588;DHT22;6359;51.450;7.346;2023-04-27T01:19:51;0.90;99.90
12588;DHT22;6359;51.450;7.346;2023-04-27T01:22:19;0.90;99.90
12588;DHT22;6359;51.450;7.346;2023-04-27T01:24:48;0.80;99.90
12588;DHT22;6359;51.450;7.346;2023-04-27T01:27:14;0.80;99.90
12588;DHT22;6359;51.450;7.346;2023-04-27T01:29:41;0.80;99.90
12588;DHT22;6359;51.450;7.346;2023-04-27T01:32:09;0.80;99.90
12588;DHT22;6359;51.450;7.346;2023-04-27T01:34:37;0.90;99.90
12588;DHT22;6359;51.450;7.346;2023-04-27T01:37:03;0.80;99.90
12588;DHT22;6359;51.450;7.346;2023-04-27T01:39:30;0.80;99.90
12588;DHT22;6359;51.450;7.346;2023-04-27T01:41:59;0.70;99.90
12588;DHT22;6359;51.450;7.346;2023-04-27T01:44:27;0.60;99.90
12588;DHT22;6359;51.450;7.346;2023-04-27T01:46:54;0.60;99.90
12588;DHT22;6359;51.450;7.346;2023-04-27T01:49:21;0.40;99.90
12588;DHT22;6359;51.450;7.346;2023-04-27T01:51:48;0.50;99.90
12588;DHT22;6359;51.450;7.346;2023-04-27T01:54:16;0.40;99.90
12588;DHT22;6359;51.450;7.346;2023-04-27T01:56:42;0.40;99.90
12588;DHT22;6359;51.450;7.346;2023-04-27T01:59:11;0.30;99.90
12588;DHT22;6359;51.450;7.346;2023-04-27T02:01:37;0.30;99.90
12588;DHT22;6359;51.450;7.346;2023-04-27T02:04:04;0.30;99.90
12588;DHT22;6359;51.450;7.346;2023-04-27T02:06:31;0.30;99.90
12588;DHT22;6359;51.450;7.346;2023-04-27T02:08:58;0.30;99.90
12588;DHT22;6359;51.450;7.346;2023-04-27T02:11:25;0.30;99.90
12588;DHT22;6359;51.450;7.346;2023-04-27T02:13:52;0.20;99.90
12588;DHT22;6359;51.450;7.346;2023-04-27T02:16:20;0.20;99.90
12588;DHT22;6359;51.450;7.346;2023-04-27T02:18:47;0.20;99.90
12588;DHT22;6359;51.450;7.346;2023-04-27T02:21:14;0.20;99.90
12588;DHT22;6359;51.450;7.346;2023-04-27T02:23:41;0.10;99.90
12588;DHT22;6359;51.450;7.346;2023-04-27T02:26:15;0.10;99.90
12588;DHT22;6359;51.450;7.346;2023-04-27T02:28:42;0.00;99.90
12588;DHT22;6359;51.450;7.346;2023-04-27T02:31:09;0.00;99.90
12588;DHT22;6359;51.450;7.346;2023-04-27T02:33:38;0.00;99.90
12588;DHT22;6359;51.450;7.346;2023-04-27T02:36:05;0.10;99.90
12588;DHT22;6359;51.450;7.346;2023-04-27T02:38:32;0.00;99.90
12588;DHT22;6359;51.450;7.346;2023-04-27T02:40:59;0.00;99.90
12588;DHT22;6359;51.450;7.346;2023-04-27T02:43:26;0.00;99.90
12588;DHT22;6359;51.450;7.346;2023-04-27T02:45:53;-0.10;99.90
12588;DHT22;6359;51.450;7.346;2023-04-27T02:48:20;-0.10;99.90
12588;DHT22;6359;51.450;7.346;2023-04-27T02:50:48;-0.20;99.90
12588;DHT22;6359;51.450;7.346;2023-04-27T02:53:15;-0.10;99.90
12588;DHT22;6359;51.450;7.346;2023-04-27T02:55:45;0.00;99.90
12588;DHT22;6359;51.450;7.346;2023-04-27T02:58:12;0.00;99.90
12588;DHT22;6359;51.450;7.346;2023-04-27T03:00:39;-0.10;99.90
12588;DHT22;6359;51.450;7.346;2023-04-27T03:03:06;-0.20;99.90
12588;DHT22;6359;51.450;7.346;2023-04-27T03:05:34;-0.10;99.90
12588;DHT22;6359;51.450;7.346;2023-04-27T03:08:03;-0.30;99.90
12588;DHT22;6359;51.450;7.346;2023-04-27T03:10:30;-0.30;99.90
12588;DHT22;6359;51.450;7.346;2023-04-27T03:12:57;-0.30;99.90
12588;DHT22;6359;51.450;7.346;2023-04-27T03:15:24;-0.30;99.90
12588;DHT22;6359;51.450;7.346;2023-04-27T03:17:51;-0.40;99.90
12588;DHT22;6359;51.450;7.346;2023-04-27T03:20:17;-0.40;99.90
12588;DHT22;6359;51.450;7.346;2023-04-27T03:22:44;-0.40;99.90
12588;DHT22;6359;51.450;7.346;2023-04-27T03:25:13;-0.40;99.90
12588;DHT22;6359;51.450;7.346;2023-04-27T03:27:40;-0.30;99.90
12588;DHT22;6359;51.450;7.346;2023-04-27T03:30:09;-0.30;99.90
12588;DHT22;6359;51.450;7.346;2023-04-27T03:32:36;-0.30;99.90
12588;DHT22;6359;51.450;7.346;2023-04-27T03:35:03;-0.40;99.90
12588;DHT22;6359;51.450;7.346;2023-04-27T03:37:30;-0.50;99.90
12588;DHT22;6359;51.450;7.346;2023-04-27T03:39:57;-0.50;99.90
12588;DHT22;6359;51.450;7.346;2023-04-27T03:42:25;-0.50;99.90
12588;DHT22;6359;51.450;7.346;2023-04-27T03:44:52;-0.50;99.90
12588;DHT22;6359;51.450;7.346;2023-04-27T03:47:19;-0.40;99.90
12588;DHT22;6359;51.450;7.346;2023-04-27T03:49:46;-0.40;99.90
12588;DHT22;6359;51.450;7.346;2023-04-27T03:52:16;-0.50;99.90
12588;DHT22;6359;51.450;7.346;2023-04-27T03:54:43;-0.60;99.90
12588;DHT22;6359;51.450;7.346;2023-04-27T03:57:10;-0.60;99.90
12588;DHT22;6359;51.450;7.346;2023-04-27T03:59:38;-0.70;99.90
12588;DHT22;6359;51.450;7.346;2023-04-27T04:02:06;-0.70;99.90
12588;DHT22;6359;51.450;7.346;2023-04-27T04:04:34;-0.70;99.90
12588;DHT22;6359;51.450;7.346;2023-04-27T04:07:00;-0.70;99.90
12588;DHT22;6359;51.450;7.346;2023-04-27T04:09:27;-0.70;99.90
12588;DHT22;6359;51.450;7.346;2023-04-27T04:11:54;-0.70;99.90
12588;DHT22;6359;51.450;7.346;2023-04-27T04:14:22;-0.70;99.90
12588;DHT22;6359;51.450;7.346;2023-04-27T04:16:50;-0.70;99.90
12588;DHT22;6359;51.450;7.346;2023-04-27T04:19:17;-0.70;99.90
12588;DHT22;6359;51.450;7.346;2023-04-27T04:21:44;-0.70;99.90
12588;DHT22;6359;51.450;7.346;2023-04-27T04:24:11;-0.70;99.90
12588;DHT22;6359;51.450;7.346;2023-04-27T04:26:38;-0.70;99.90
12588;DHT22;6359;51.450;7.346;2023-04-27T04:29:05;-0.60;99.90
12588;DHT22;6359;51.450;7.346;2023-04-27T04:31:31;-0.60;99.90
12588;DHT22;6359;51.450;7.346;2023-04-27T04:34:00;-0.50;99.90
12588;DHT22;6359;51.450;7.346;2023-04-27T04:36:28;-0.50;99.90
12588;DHT22;6359;51.450;7.346;2023-04-27T04:38:55;-0.40;99.90
12588;DHT22;6359;51.450;7.346;2023-04-27T04:41:23;-0.40;99.90
12588;DHT22;6359;51.450;7.346;2023-04-27T04:43:50;-0.30;99.90
12588;DHT22;6359;51.450;7.346;2023-04-27T04:46:17;-0.10;99.90
12588;DHT22;6359;51.450;7.346;2023-04-27T04:48:44;-0.10;99.90
12588;DHT22;6359;51.450;7.346;2023-04-27T04:51:12;0.00;99.90
12588;DHT22;6359;51.450;7.346;2023-04-27T04:53:39;0.00;99.90
12588;DHT22;6359;51.450;7.346;2023-04-27T04:56:10;0.10;99.90
12588;DHT22;6359;51.450;7.346;2023-04-27T04:58:37;0.20;99.90
12588;DHT22;6359;51.450;7.346;2023-04-27T05:01:04;0.30;99.90
12588;DHT22;6359;51.450;7.346;2023-04-27T05:03:32;0.30;99.90
12588;DHT22;6359;51.450;7.346;2023-04-27T05:05:58;0.40;99.90
12588;DHT22;6359;51.450;7.346;2023-04-27T05:08:27;0.50;99.90
12588;DHT22;6359;51.450;7.346;2023-04-27T05:10:54;0.60;99.90
12588;DHT22;6359;51.450;7.346;2023-04-27T05:13:21;0.70;99.90
12588;DHT22;6359;51.450;7.346;2023-04-27T05:15:49;0.90;99.90
12588;DHT22;6359;51.450;7.346;2023-04-27T05:18:16;1.00;99.90
12588;DHT22;6359;51.450;7.346;2023-04-27T05:20:43;1.10;99.90
12588;DHT22;6359;51.450;7.346;2023-04-27T05:23:10;1.30;99.90
12588;DHT22;6359;51.450;7.346;2023-04-27T05:25:38;1.40;99.90
12588;DHT22;6359;51.450;7.346;2023-04-27T05:28:07;1.60;99.90
12588;DHT22;6359;51.450;7.346;2023-04-27T05:30:34;1.70;99.90
12588;DHT22;6359;51.450;7.346;2023-04-27T05:33:01;1.90;99.90
12588;DHT22;6359;51.450;7.346;2023-04-27T05:35:28;2.10;99.90
12588;DHT22;6359;51.450;7.346;2023-04-27T05:37:55;2.20;99.90
12588;DHT22;6359;51.450;7.346;2023-04-27T05:40:22;2.40;99.90
12588;DHT22;6359;51.450;7.346;2023-04-27T05:42:51;2.60;99.90
12588;DHT22;6359;51.450;7.346;2023-04-27T05:45:18;2.80;99.90
12588;DHT22;6359;51.450;7.346;2023-04-27T05:47:45;3.10;99.90
12588;DHT22;6359;51.450;7.346;2023-04-27T05:50:12;3.30;99.90
12588;DHT22;6359;51.450;7.346;2023-04-27T05:52:39;3.60;99.90
12588;DHT22;6359;51.450;7.346;2023-04-27T05:55:06;3.90;99.90
12588;DHT22;6359;51.450;7.346;2023-04-27T05:57:33;4.20;99.90
12588;DHT22;6359;51.450;7.346;2023-04-27T06:00:02;4.50;99.90
12588;DHT22;6359;51.450;7.346;2023-04-27T06:02:33;4.80;99.90
12588;DHT22;6359;51.450;7.346;2023-04-27T06:05:00;5.90;99.90
12588;DHT22;6359;51.450;7.346;2023-04-27T06:07:28;7.80;99.90
12588;DHT22;6359;51.450;7.346;2023-04-27T06:09:55;9.80;99.90
12588;DHT22;6359;51.450;7.346;2023-04-27T06:12:21;11.70;99.90
12588;DHT22;6359;51.450;7.346;2023-04-27T06:14:48;12.70;99.90
12588;DHT22;6359;51.450;7.346;2023-04-27T06:17:17;14.10;99.90
12588;DHT22;6359;51.450;7.346;2023-04-27T06:19:43;14.90;99.90
12588;DHT22;6359;51.450;7.346;2023-04-27T06:22:10;15.10;99.90
12588;DHT22;6359;51.450;7.346;2023-04-27T06:24:37;15.90;99.90
12588;DHT22;6359;51.450;7.346;2023-04-27T06:27:04;16.50;99.90
12588;DHT22;6359;51.450;7.346;2023-04-27T06:29:31;16.90;99.90
12588;DHT22;6359;51.450;7.346;2023-04-27T06:31:58;17.00;99.90
12588;DHT22;6359;51.450;7.346;2023-04-27T06:34:27;17.20;99.90
12588;DHT22;6359;51.450;7.346;2023-04-27T06:36:54;17.60;99.90
12588;DHT22;6359;51.450;7.346;2023-04-27T06:39:21;17.50;99.90
12588;DHT22;6359;51.450;7.346;2023-04-27T06:41:47;17.20;99.90
12588;DHT22;6359;51.450;7.346;2023-04-27T06:44:14;17.40;99.90
12588;DHT22;6359;51.450;7.346;2023-04-27T06:46:41;17.30;99.90
12588;DHT22;6359;51.450;7.346;2023-04-27T06:49:08;17.50;99.90
12588;DHT22;6359;51.450;7.346;2023-04-27T06:51:36;18.10;99.90
12588;DHT22;6359;51.450;7.346;2023-04-27T06:54:03;18.40;99.90
12588;DHT22;6359;51.450;7.346;2023-04-27T06:56:30;18.20;99.90
12588;DHT22;6359;51.450;7.346;2023-04-27T06:58:57;18.40;99.90
12588;DHT22;6359;51.450;7.346;2023-04-27T07:01:24;18.50;99.90
12588;DHT22;6359;51.450;7.346;2023-04-27T07:03:51;18.90;99.90
12588;DHT22;6359;51.450;7.346;2023-04-27T07:06:18;19.00;99.90
12588;DHT22;6359;51.450;7.346;2023-04-27T07:08:46;18.40;99.90
12588;DHT22;6359;51.450;7.346;2023-04-27T07:11:13;18.70;99.90
12588;DHT22;6359;51.450;7.346;2023-04-27T07:13:40;18.90;99.90
12588;DHT22;6359;51.450;7.346;2023-04-27T07:16:07;19.10;99.90
12588;DHT22;6359;51.450;7.346;2023-04-27T07:18:34;19.30;99.90
12588;DHT22;6359;51.450;7.346;2023-04-27T07:21:01;19.00;99.90
12588;DHT22;6359;51.450;7.346;2023-04-27T07:23:28;19.70;99.90
12588;DHT22;6359;51.450;7.346;2023-04-27T07:25:56;20.10;99.90
12588;DHT22;6359;51.450;7.346;2023-04-27T07:28:23;19.90;99.90
12588;DHT22;6359;51.450;7.346;2023-04-27T07:30:50;19.80;99.90
12588;DHT22;6359;51.450;7.346;2023-04-27T07:33:17;20.10;99.90
12588;DHT22;6359;51.450;7.346;2023-04-27T07:35:44;18.60;99.90
12588;DHT22;6359;51.450;7.346;2023-04-27T07:38:11;19.60;99.90
12588;DHT22;6359;51.450;7.346;2023-04-27T07:40:38;19.90;99.90
12588;DHT22;6359;51.450;7.346;2023-04-27T07:43:06;19.60;99.90
12588;DHT22;6359;51.450;7.346;2023-04-27T07:45:34;20.60;99.90
12588;DHT22;6359;51.450;7.346;2023-04-27T07:48:02;20.30;99.90
12588;DHT22;6359;51.450;7.346;2023-04-27T07:50:29;19.90;99.90
12588;DHT22;6359;51.450;7.346;2023-04-27T07:52:56;19.00;99.90
12588;DHT22;6359;51.450;7.346;2023-04-27T07:55:24;19.40;99.90
12588;DHT22;6359;51.450;7.346;2023-04-27T07:57:53;19.90;99.90
12588;DHT22;6359;51.450;7.346;2023-04-27T08:00:22;20.40;99.90
12588;DHT22;6359;51.450;7.346;2023-04-27T08:02:51;20.60;99.90
12588;DHT22;6359;51.450;7.346;2023-04-27T08:05:18;21.50;99.90
12588;DHT22;6359;51.450;7.346;2023-04-27T08:07:45;22.40;99.90
12588;DHT22;6359;51.450;7.346;2023-04-27T08:10:14;22.20;99.90
12588;DHT22;6359;51.450;7.346;2023-04-27T08:12:41;22.00;99.90
12588;DHT22;6359;51.450;7.346;2023-04-27T08:15:09;22.40;99.90
12588;DHT22;6359;51.450;7.346;2023-04-27T08:17:38;22.30;99.90
12588;DHT22;6359;51.450;7.346;2023-04-27T08:20:07;22.30;99.90
12588;DHT22;6359;51.450;7.346;2023-04-27T08:22:35;22.80;99.90
12588;DHT22;6359;51.450;7.346;2023-04-27T08:25:03;22.40;99.90
12588;DHT22;6359;51.450;7.346;2023-04-27T08:27:30;21.50;99.90
12588;DHT22;6359;51.450;7.346;2023-04-27T08:29:58;21.70;99.90
12588;DHT22;6359;51.450;7.346;2023-04-27T08:32:26;22.00;99.90
12588;DHT22;6359;51.450;7.346;2023-04-27T08:34:54;22.40;99.90
12588;DHT22;6359;51.450;7.346;2023-04-27T08:37:21;22.40;99.90
12588;DHT22;6359;51.450;7.346;2023-04-27T08:39:48;22.00;99.90
12588;DHT22;6359;51.450;7.346;2023-04-27T08:42:15;21.70;99.90
12588;DHT22;6359;51.450;7.346;2023-04-27T08:44:42;22.80;99.90
12588;DHT22;6359;51.450;7.346;2023-04-27T08:47:10;23.20;99.90
12588;DHT22;6359;51.450;7.346;2023-04-27T08:49:37;22.90;99.90
12588;DHT22;6359;51.450;7.346;2023-04-27T08:52:11;22.70;99.90
12588;DHT22;6359;51.450;7.346;2023-04-27T08:54:38;22.70;99.90
12588;DHT22;6359;51.450;7.346;2023-04-27T08:57:09;22.40;99.90
12588;DHT22;6359;51.450;7.346;2023-04-27T08:59:37;22.80;99.90
12588;DHT22;6359;51.450;7.346;2023-04-27T09:02:04;22.90;99.90
12588;DHT22;6359;51.450;7.346;2023-04-27T09:04:37;23.40;99.90
12588;DHT22;6359;51.450;7.346;2023-04-27T09:07:12;22.30;99.90
12588;DHT22;6359;51.450;7.346;2023-04-27T09:09:39;23.10;99.90
12588;DHT22;6359;51.450;7.346;2023-04-27T09:12:14;20.60;99.90
12588;DHT22;6359;51.450;7.346;2023-04-27T09:14:42;19.80;99.90
12588;DHT22;6359;51.450;7.346;2023-04-27T09:17:09;20.50;99.90
12588;DHT22;6359;51.450;7.346;2023-04-27T09:19:36;20.90;99.90
12588;DHT22;6359;51.450;7.346;2023-04-27T09:22:07;20.70;99.90
12588;DHT22;6359;51.450;7.346;2023-04-27T09:24:36;20.90;99.90
12588;DHT22;6359;51.450;7.346;2023-04-27T09:27:05;21.90;99.90
12588;DHT22;6359;51.450;7.346;2023-04-27T09:29:33;21.70;99.90
12588;DHT22;6359;51.450;7.346;2023-04-27T09:32:00;19.40;99.90
12588;DHT22;6359;51.450;7.346;2023-04-27T09:34:36;19.80;99.90
12588;DHT22;6359;51.450;7.346;2023-04-27T09:37:04;19.40;99.90
12588;DHT22;6359;51.450;7.346;2023-04-27T09:39:32;19.90;99.90
12588;DHT22;6359;51.450;7.346;2023-04-27T09:42:01;20.00;99.90
12588;DHT22;6359;51.450;7.346;2023-04-27T09:44:29;19.70;99.90
12588;DHT22;6359;51.450;7.346;2023-04-27T09:46:57;20.50;99.90
12588;DHT22;6359;51.450;7.346;2023-04-27T09:49:26;20.80;99.90
12588;DHT22;6359;51.450;7.346;2023-04-27T09:51:54;18.00;99.90
12588;DHT22;6359;51.450;7.346;2023-04-27T09:54:26;17.40;99.90
12588;DHT22;6359;51.450;7.346;2023-04-27T09:57:06;18.60;99.90
12588;DHT22;6359;51.450;7.346;2023-04-27T09:59:47;18.80;99.90
12588;DHT22;6359;51.450;7.346;2023-04-27T10:02:18;19.40;99.90
12588;DHT22;6359;51.450;7.346;2023-04-27T10:07:40;18.40;99.90
12588;DHT22;6359;51.450;7.346;2023-04-27T10:10:14;17.60;99.90
12588;DHT22;6359;51.450;7.346;2023-04-27T10:12:55;18.70;99.90
12588;DHT22;6359;51.450;7.346;2023-04-27T10:15:25;18.90;99.90
12588;DHT22;6359;51.450;7.346;2023-04-27T10:17:52;18.90;99.90
12588;DHT22;6359;51.450;7.346;2023-04-27T10:20:28;19.20;99.90
12588;DHT22;6359;51.450;7.346;2023-04-27T10:22:55;19.00;99.90
12588;DHT22;6359;51.450;7.346;2023-04-27T10:25:24;18.00;99.90
12588;DHT22;6359;51.450;7.346;2023-04-27T10:27:54;18.00;99.90
12588;DHT22;6359;51.450;7.346;2023-04-27T10:30:23;18.30;99.90
12588;DHT22;6359;51.450;7.346;2023-04-27T10:32:52;18.00;99.90
12588;DHT22;6359;51.450;7.346;2023-04-27T10:35:19;17.90;99.90
12588;DHT22;6359;51.450;7.346;2023-04-27T10:37:46;17.80;99.90
12588;DHT22;6359;51.450;7.346;2023-04-27T10:40:14;18.20;99.90
12588;DHT22;6359;51.450;7.346;2023-04-27T10:42:42;18.30;99.90
12588;DHT22;6359;51.450;7.346;2023-04-27T10:45:11;18.70;99.90
12588;DHT22;6359;51.450;7.346;2023-04-27T10:47:39;18.60;99.90
12588;DHT22;6359;51.450;7.346;2023-04-27T10:50:08;18.50;99.90
12588;DHT22;6359;51.450;7.346;2023-04-27T10:52:38;19.20;99.90
12588;DHT22;6359;51.450;7.346;2023-04-27T10:55:13;19.20;99.90
12588;DHT22;6359;51.450;7.346;2023-04-27T10:57:47;19.30;99.90
12588;DHT22;6359;51.450;7.346;2023-04-27T11:00:21;18.10;99.90
12588;DHT22;6359;51.450;7.346;2023-04-27T11:02:48;18.40;99.90
12588;DHT22;6359;51.450;7.346;2023-04-27T11:05:19;18.50;99.90
12588;DHT22;6359;51.450;7.346;2023-04-27T11:07:47;18.80;99.90
12588;DHT22;6359;51.450;7.346;2023-04-27T11:10:15;18.60;99.90
12588;DHT22;6359;51.450;7.346;2023-04-27T11:12:42;18.80;99.90
12588;DHT22;6359;51.450;7.346;2023-04-27T11:15:09;18.50;99.90
12588;DHT22;6359;51.450;7.346;2023-04-27T11:17:38;18.10;99.90
12588;DHT22;6359;51.450;7.346;2023-04-27T11:20:06;17.90;99.90
12588;DHT22;6359;51.450;7.346;2023-04-27T11:22:41;17.60;99.90
12588;DHT22;6359;51.450;7.346;2023-04-27T11:25:09;17.30;99.90
12588;DHT22;6359;51.450;7.346;2023-04-27T11:27:36;17.10;99.90
12588;DHT22;6359;51.450;7.346;2023-04-27T11:30:04;16.70;99.90
12588;DHT22;6359;51.450;7.346;2023-04-27T11:32:32;16.60;99.90
12588;DHT22;6359;51.450;7.346;2023-04-27T11:35:00;16.40;99.90
12588;DHT22;6359;51.450;7.346;2023-04-27T11:37:27;16.40;99.90
12588;DHT22;6359;51.450;7.346;2023-04-27T11:39:54;16.70;99.90
12588;DHT22;6359;51.450;7.346;2023-04-27T11:42:27;16.60;99.90
12588;DHT22;6359;51.450;7.346;2023-04-27T11:44:55;16.70;99.90
12588;DHT22;6359;51.450;7.346;2023-04-27T11:47:23;15.70;99.90
12588;DHT22;6359;51.450;7.346;2023-04-27T11:49:54;16.30;99.90
12588;DHT22;6359;51.450;7.346;2023-04-27T11:52:27;16.80;99.90
12588;DHT22;6359;51.450;7.346;2023-04-27T11:54:53;16.70;99.90
12588;DHT22;6359;51.450;7.346;2023-04-27T11:57:23;16.40;99.90
12588;DHT22;6359;51.450;7.346;2023-04-27T11:59:51;16.30;99.90
12588;DHT22;6359;51.450;7.346;2023-04-27T12:02:18;16.40;99.90
12588;DHT22;6359;51.450;7.346;2023-04-27T12:04:46;16.30;99.90
12588;DHT22;6359;51.450;7.346;2023-04-27T12:07:13;16.60;99.90
12588;DHT22;6359;51.450;7.346;2023-04-27T12:09:41;16.60;99.90
12588;DHT22;6359;51.450;7.346;2023-04-27T12:12:09;16.60;99.90
12588;DHT22;6359;51.450;7.346;2023-04-27T12:14:37;16.50;99.90
12588;DHT22;6359;51.450;7.346;2023-04-27T12:17:04;16.20;99.90
12588;DHT22;6359;51.450;7.346;2023-04-27T12:19:31;16.30;99.90
12588;DHT22;6359;51.450;7.346;2023-04-27T12:21:58;16.20;99.90
12588;DHT22;6359;51.450;7.346;2023-04-27T12:24:24;15.90;99.90
12588;DHT22;6359;51.450;7.346;2023-04-27T12:26:53;15.90;99.90
12588;DHT22;6359;51.450;7.346;2023-04-27T12:29:20;16.10;99.90
12588;DHT22;6359;51.450;7.346;2023-04-27T12:31:47;15.40;99.90
12588;DHT22;6359;51.450;7.346;2023-04-27T12:34:14;15.40;99.90
12588;DHT22;6359;51.450;7.346;2023-04-27T12:36:41;15.60;99.90
12588;DHT22;6359;51.450;7.346;2023-04-27T12:39:12;15.40;99.90
12588;DHT22;6359;51.450;7.346;2023-04-27T12:41:40;15.40;99.90
12588;DHT22;6359;51.450;7.346;2023-04-27T12:44:08;15.40;99.90
12588;DHT22;6359;51.450;7.346;2023-04-27T12:46:36;16.00;99.90
12588;DHT22;6359;51.450;7.346;2023-04-27T12:49:03;16.10;99.90
12588;DHT22;6359;51.450;7.346;2023-04-27T12:51:31;15.80;99.90
12588;DHT22;6359;51.450;7.346;2023-04-27T12:53:58;15.70;99.90
12588;DHT22;6359;51.450;7.346;2023-04-27T12:56:25;16.10;99.90
12588;DHT22;6359;51.450;7.346;2023-04-27T12:58:52;16.40;99.90
12588;DHT22;6359;51.450;7.346;2023-04-27T13:01:21;16.30;99.90
12588;DHT22;6359;51.450;7.346;2023-04-27T13:03:50;16.50;99.90
12588;DHT22;6359;51.450;7.346;2023-04-27T13:06:17;16.70;99.90
12588;DHT22;6359;51.450;7.346;2023-04-27T13:08:44;16.80;99.90
12588;DHT22;6359;51.450;7.346;2023-04-27T13:11:11;16.50;99.90
12588;DHT22;6359;51.450;7.346;2023-04-27T13:13:38;16.60;99.90
12588;DHT22;6359;51.450;7.346;2023-04-27T13:16:06;16.60;99.90
12588;DHT22;6359;51.450;7.346;2023-04-27T13:18:34;16.90;99.90
12588;DHT22;6359;51.450;7.346;2023-04-27T13:21:02;16.60;99.90
12588;DHT22;6359;51.450;7.346;2023-04-27T13:23:29;16.60;99.90
12588;DHT22;6359;51.450;7.346;2023-04-27T13:25:56;16.70;99.90
12588;DHT22;6359;51.450;7.346;2023-04-27T13:28:23;16.60;99.90
12588;DHT22;6359;51.450;7.346;2023-04-27T13:30:50;16.70;99.90
12588;DHT22;6359;51.450;7.346;2023-04-27T13:33:17;16.70;99.90
12588;DHT22;6359;51.450;7.346;2023-04-27T13:35:45;16.40;99.90
12588;DHT22;6359;51.450;7.346;2023-04-27T13:38:12;16.40;99.90
12588;DHT22;6359;51.450;7.346;2023-04-27T13:40:39;16.40;99.90
12588;DHT22;6359;51.450;7.346;2023-04-27T13:43:06;16.40;99.90
12588;DHT22;6359;51.450;7.346;2023-04-27T13:45:33;16.60;99.90
12588;DHT22;6359;51.450;7.346;2023-04-27T13:48:00;16.30;99.90
12588;DHT22;6359;51.450;7.346;2023-04-27T13:50:27;16.40;99.90
12588;DHT22;6359;51.450;7.346;2023-04-27T13:52:55;16.20;99.90
12588;DHT22;6359;51.450;7.346;2023-04-27T13:55:22;16.40;99.90
12588;DHT22;6359;51.450;7.346;2023-04-27T13:57:49;15.60;99.90
12588;DHT22;6359;51.450;7.346;2023-04-27T14:00:16;14.70;99.90
12588;DHT22;6359;51.450;7.346;2023-04-27T14:02:43;14.90;99.90
12588;DHT22;6359;51.450;7.346;2023-04-27T14:05:10;15.00;99.90
12588;DHT22;6359;51.450;7.346;2023-04-27T14:07:37;15.20;99.90
12588;DHT22;6359;51.450;7.346;2023-04-27T14:10:06;15.40;99.90
12588;DHT22;6359;51.450;7.346;2023-04-27T14:12:33;15.40;99.90
12588;DHT22;6359;51.450;7.346;2023-04-27T14:15:00;15.40;99.90
12588;DHT22;6359;51.450;7.346;2023-04-27T14:17:27;15.50;99.90
12588;DHT22;6359;51.450;7.346;2023-04-27T14:19:54;15.80;99.90
12588;DHT22;6359;51.450;7.346;2023-04-27T14:22:21;16.10;99.90
12588;DHT22;6359;51.450;7.346;2023-04-27T14:24:48;16.40;99.90
12588;DHT22;6359;51.450;7.346;2023-04-27T14:27:16;16.50;99.90
12588;DHT22;6359;51.450;7.346;2023-04-27T14:29:43;16.60;99.90
12588;DHT22;6359;51.450;7.346;2023-04-27T14:32:10;16.40;99.90
12588;DHT22;6359;51.450;7.346;2023-04-27T14:34:37;16.30;99.90
12588;DHT22;6359;51.450;7.346;2023-04-27T14:37:04;16.00;99.90
12588;DHT22;6359;51.450;7.346;2023-04-27T14:39:31;16.00;99.90
12588;DHT22;6359;51.450;7.346;2023-04-27T14:41:58;15.90;99.90
12588;DHT22;6359;51.450;7.346;2023-04-27T14:44:26;15.90;99.90
12588;DHT22;6359;51.450;7.346;2023-04-27T14:46:53;15.90;99.90
12588;DHT22;6359;51.450;7.346;2023-04-27T14:49:20;15.90;99.90
12588;DHT22;6359;51.450;7.346;2023-04-27T14:51:47;15.40;99.90
12588;DHT22;6359;51.450;7.346;2023-04-27T14:54:14;15.50;99.90
12588;DHT22;6359;51.450;7.346;2023-04-27T14:56:41;15.50;99.90
12588;DHT22;6359;51.450;7.346;2023-04-27T14:59:08;15.60;99.90
12588;DHT22;6359;51.450;7.346;2023-04-27T15:01:36;15.80;99.90
12588;DHT22;6359;51.450;7.346;2023-04-27T15:04:03;15.90;99.90
12588;DHT22;6359;51.450;7.346;2023-04-27T15:06:30;15.50;99.90
12588;DHT22;6359;51.450;7.346;2023-04-27T15:08:57;15.40;99.90
12588;DHT22;6359;51.450;7.346;2023-04-27T15:11:24;15.60;99.90
12588;DHT22;6359;51.450;7.346;2023-04-27T15:13:51;15.40;99.90
12588;DHT22;6359;51.450;7.346;2023-04-27T15:16:18;15.60;99.90
12588;DHT22;6359;51.450;7.346;2023-04-27T15:18:46;15.60;99.90
12588;DHT22;6359;51.450;7.346;2023-04-27T15:21:13;15.50;99.90
12588;DHT22;6359;51.450;7.346;2023-04-27T15:23:40;15.50;99.90
12588;DHT22;6359;51.450;7.346;2023-04-27T15:26:07;15.50;99.90
12588;DHT22;6359;51.450;7.346;2023-04-27T15:28:34;15.50;99.90
12588;DHT22;6359;51.450;7.346;2023-04-27T15:31:02;15.70;99.90
12588;DHT22;6359;51.450;7.346;2023-04-27T15:33:28;15.80;99.90
12588;DHT22;6359;51.450;7.346;2023-04-27T15:35:57;15.60;99.90
12588;DHT22;6359;51.450;7.346;2023-04-27T15:38:24;15.50;99.90
12588;DHT22;6359;51.450;7.346;2023-04-27T15:40:51;15.50;99.90
12588;DHT22;6359;51.450;7.346;2023-04-27T15:43:18;15.50;99.90
12588;DHT22;6359;51.450;7.346;2023-04-27T15:45:46;15.50;99.90
12588;DHT22;6359;51.450;7.346;2023-04-27T15:48:13;15.50;99.90
12588;DHT22;6359;51.450;7.346;2023-04-27T15:50:40;15.20;99.90
12588;DHT22;6359;51.450;7.346;2023-04-27T15:53:08;15.20;99.90
12588;DHT22;6359;51.450;7.346;2023-04-27T15:55:35;15.10;99.90